Detall de PIREP

Printer-friendly versionPDF version

[2010/10/04 12:47:00]
Flight IATA:CT2213
Pilot Number:026
Company ICAO:CAT
Aircraft Type:DC85/A
PAX:136
Departing Airport: LFST
Destination Airport: LFMP
Alternate Airport:LFBO
Online: VATSIM
Route:MIRGU UN852 BALSI UY16 MTL UZ38 BOLSA UZ39 SIJAN
Flight Level:FL330
No Slew and time accel
No pause
Crash detect
Detect pilot in Cockpit between each 30 and 45 minutes
12:47 Zero fuel Weight: 172527 Lbs, Fuel Weight: 26997 Lbs
12:47 VATSIM:LFST 041230Z 03007KT 350V060 CAVOK 21/14 Q1001 NOSIG
12:47 VATSIM:LFMP 041200Z 33016KT 9999 FEW040CB SCT100 24/08 Q0999 NOSIG
12:47 VOICE CATALONIAN / LFMP HUB ROUTE
12:56 Parking Brakes off
13:03 Take-off
13:03 Take off Weight: 198546 Lbs
13:03 Wind: 022º @ 009 Knots Heading: 047º
13:03 POS N48º 32´ 25´´ E007º 37´ 55´´
13:03 Gear Up: 173 Knots
13:03 Flaps:2 at 173 Knots
13:04 Flaps:1 at 213 Knots
13:05 Flaps:0 at 176 Knots
13:16 TOC
13:16 Fuel Weight: 21643 Lb
13:18 Wind:130º@025 Knots Heading: 178º Ground Speed: 456 Knots Altitude 32565 ft
13:33 Wind:273º@035 Knots Heading: 179º Ground Speed: 493 Knots Altitude 32545 ft
13:44 TOD
13:44 Fuel Weight: 15438 Lb
13:48 Wind:169º@043 Knots Heading: 242º Ground Speed: 475 Knots Altitude 27624 ft
14:03 Wind:272º@032 Knots Heading: 242º Ground Speed: 275 Knots Altitude 7874 ft
14:16 Flaps:1 at 183 Knots
14:17 Gear Down: 183 Knots
14:17 Flaps:2 at 181 Knots
14:18 Wind:322º@015 Knots Heading: 325º Ground Speed: 172 Knots Altitude 1482 ft
14:18 Flaps:3 at 179 Knots
14:18 Flaps:4 at 176 Knots
14:19 TouchDown:Rate -469 ft/min Speed: 131 Knots
14:19 VATSIM:LFMP 041400Z 32015KT 9999 FEW043 SCT060 BKN090 23/10 Q1002 NOSIG
14:20 Land
14:20 Wind:322º@015 Knots
14:20 Heading: 308º
14:20 Flight Duration: 01:17
14:20 Landing Weight: 183816 Lbs
14:20 POS N42º 44´ 50´´ E002º 52´ 02´´
14:20 Parking brakes on
14:20 Block to Block Duration: 01:24
14:20 Final Fuel: 11252 Lbls
14:20 Spent Fuel: 15745 Lbls
14:20 Flight Length: 478 NM
14:20 TOD Land Length: 180 NM

Exportar CSV

Powered by Drupal - Modified by Danger4k